EDSB

Karlsruhe Baden-Baden Airport

Baden-Baden, Germany
METAR EDSB 172220Z AUTO 15009KT 120V200 9999 // BKN069/// BKN081/// BKN100/// 19/16 Q1017
Observed Flight Rules
Jul-17 @ 22:20 UTC (34 minutes ago) Visual Flight Rules
Wind Visibility Clouds
150° at 9 knots 10,000+ meters
  • Broken at 6,900' AGL
  • Broken at 8,100' AGL
  • Broken at 10,000' AGL
Temperatures Readings
Current 19°C / 66°F
Dewpoint 16°C / 61°F
Humidity 83%
Altimeter 30.03" Hg
Pressure 1017 hPa
Elevation 124
METAR EDSB 172220Z AUTO 15009KT 120V200 9999 // BKN069/// BKN081/// BKN100/// 19/16 Q1017
Observed Flight Rules
Jul-17 @ 22:20 UTC
(34 minutes ago)
VFR
Wind Visibility
150° at 9 knots 10,000+ meters
Clouds
  • Broken at 6,900' AGL
  • Broken at 8,100' AGL
  • Broken at 10,000' AGL
Temperature Dewpoint
19°C / 66°F 16°C / 61°F
Humidity Altimeter Pressure
83% 30.03" Hg 1017 hPa